createdAt,value
2022-11-24T00:01:17.930Z,-1.21
2022-11-24T00:03:53.961Z,-1.00
2022-11-24T00:06:21.662Z,-1.00
2022-11-24T00:08:49.070Z,-1.03
2022-11-24T00:11:20.404Z,-1.03
2022-11-24T00:13:48.280Z,-1.19
2022-11-24T00:16:18.663Z,-1.25
2022-11-24T00:18:48.305Z,-1.21
2022-11-24T00:21:16.561Z,-1.39
2022-11-24T00:23:44.564Z,-1.12
2022-11-24T00:26:15.655Z,-0.98
2022-11-24T00:28:44.968Z,-0.94
2022-11-24T00:31:18.865Z,-1.03
2022-11-24T00:33:47.876Z,-0.96
2022-11-24T00:36:16.557Z,-1.24
2022-11-24T00:38:45.259Z,-1.12
2022-11-24T00:41:13.728Z,-1.03
2022-11-24T00:43:41.052Z,-1.15
2022-11-24T00:46:08.847Z,-1.23
2022-11-24T00:48:36.171Z,-1.01
2022-11-24T00:51:09.316Z,-1.24
2022-11-24T00:53:36.834Z,-1.21
2022-11-24T00:56:05.525Z,-1.42
2022-11-24T00:58:33.048Z,-1.39
2022-11-24T01:01:14.205Z,-1.48
2022-11-24T01:03:42.593Z,-1.23
2022-11-24T01:06:16.890Z,-1.31
2022-11-24T01:08:45.244Z,-1.20
2022-11-24T01:11:20.312Z,-1.35
2022-11-24T01:13:52.677Z,-1.44
2022-11-24T01:16:35.081Z,-1.42
2022-11-24T01:19:03.984Z,-1.33
2022-11-24T01:21:31.481Z,-1.03
2022-11-24T01:23:58.624Z,-1.15
2022-11-24T01:26:26.668Z,-0.98
2022-11-24T01:28:55.209Z,-1.04
2022-11-24T01:31:23.736Z,-1.64
2022-11-24T01:33:50.986Z,-1.48
2022-11-24T01:36:18.692Z,-1.53
2022-11-24T01:38:45.974Z,-1.87
2022-11-24T01:41:22.787Z,-1.83
2022-11-24T01:43:51.761Z,-1.79
2022-11-24T01:46:30.400Z,-2.03
2022-11-24T01:49:11.700Z,-1.98
2022-11-24T01:51:45.626Z,-1.81
2022-11-24T01:54:25.220Z,-1.82
2022-11-24T01:56:57.787Z,-1.71
2022-11-24T01:59:26.630Z,-1.89
2022-11-24T02:01:56.245Z,-1.83
2022-11-24T02:04:27.989Z,-1.79
2022-11-24T02:06:59.976Z,-1.74
2022-11-24T02:09:45.770Z,-1.57
2022-11-24T02:12:13.417Z,-1.77
2022-11-24T02:14:43.386Z,-1.33
2022-11-24T02:17:11.222Z,-1.78
2022-11-24T02:19:53.098Z,-1.71
2022-11-24T02:22:39.766Z,-1.56
2022-11-24T02:25:10.193Z,-1.69
2022-11-24T02:27:37.815Z,-1.61
2022-11-24T02:30:05.388Z,-1.56
2022-11-24T02:32:33.625Z,-1.65
2022-11-24T02:35:05.327Z,-1.36
2022-11-24T02:37:32.865Z,-1.24
2022-11-24T02:40:00.290Z,-1.61
2022-11-24T02:42:32.082Z,-1.71
2022-11-24T02:45:01.209Z,-1.61
2022-11-24T02:47:28.871Z,-1.56
2022-11-24T02:49:56.087Z,-1.51
2022-11-24T02:52:23.737Z,-1.36
2022-11-24T02:54:51.012Z,-1.47
2022-11-24T02:57:18.487Z,-1.31
2022-11-24T02:59:46.746Z,-1.40
2022-11-24T03:02:14.402Z,-1.68
2022-11-24T03:04:41.583Z,-1.58
2022-11-24T03:07:09.860Z,-1.48
2022-11-24T03:09:37.407Z,-1.47
2022-11-24T03:12:06.130Z,-1.40
2022-11-24T03:14:33.519Z,-1.43
2022-11-24T03:17:01.099Z,-1.60
2022-11-24T03:19:28.307Z,-1.26
2022-11-24T03:21:55.829Z,-1.24
2022-11-24T03:24:22.959Z,-1.55
2022-11-24T03:26:50.528Z,-1.43
2022-11-24T03:29:17.814Z,-1.34
2022-11-24T03:31:45.430Z,-1.13
2022-11-24T03:34:12.663Z,-1.18
2022-11-24T03:36:40.261Z,-1.47
2022-11-24T03:39:07.662Z,-1.58
2022-11-24T03:41:35.433Z,-1.60
2022-11-24T03:44:02.941Z,-1.78
2022-11-24T03:46:30.581Z,-1.92
2022-11-24T03:48:57.881Z,-1.70
2022-11-24T03:51:25.408Z,-1.54
2022-11-24T03:53:52.614Z,-1.50
2022-11-24T03:56:20.739Z,-1.44
2022-11-24T03:58:47.974Z,-1.29
2022-11-24T04:01:15.573Z,-1.62
2022-11-24T04:03:42.875Z,-1.57
2022-11-24T04:06:10.523Z,-1.56
2022-11-24T04:08:37.705Z,-1.77
2022-11-24T04:11:05.473Z,-1.83
2022-11-24T04:13:32.860Z,-1.83
2022-11-24T04:16:00.461Z,-1.45
2022-11-24T04:18:27.813Z,-1.43
2022-11-24T04:20:55.324Z,-1.33
2022-11-24T04:23:22.958Z,-1.89
2022-11-24T04:25:50.450Z,-1.55
2022-11-24T04:28:17.668Z,-1.41
2022-11-24T04:30:45.423Z,-1.34
2022-11-24T04:33:13.087Z,-1.28
2022-11-24T04:35:40.882Z,-1.22
2022-11-24T04:38:08.139Z,-1.47
2022-11-24T04:40:35.665Z,-1.18
2022-11-24T04:43:02.976Z,-1.26
2022-11-24T04:45:30.505Z,-1.28
2022-11-24T04:47:57.846Z,-1.69
2022-11-24T04:50:25.442Z,-1.67
2022-11-24T04:52:52.819Z,-1.23
2022-11-24T04:55:20.387Z,-1.09
2022-11-24T04:57:47.772Z,-1.16
2022-11-24T05:00:15.616Z,-1.44
2022-11-24T05:02:42.771Z,-1.17
2022-11-24T05:05:10.995Z,-1.03
2022-11-24T05:07:38.258Z,-1.42
2022-11-24T05:10:24.785Z,-1.15
2022-11-24T05:12:56.761Z,-1.18
2022-11-24T05:15:24.392Z,-1.22
2022-11-24T05:17:52.019Z,-1.01
2022-11-24T05:20:20.579Z,-1.15
2022-11-24T05:22:47.922Z,-1.41
2022-11-24T05:25:15.823Z,-1.06
2022-11-24T05:27:43.202Z,-1.51
2022-11-24T05:30:11.242Z,-1.52
2022-11-24T05:32:38.407Z,-1.66
2022-11-24T05:35:06.767Z,-1.71
2022-11-24T05:37:34.046Z,-1.75
2022-11-24T05:40:01.543Z,-1.28
2022-11-24T05:42:46.186Z,-1.56
2022-11-24T05:45:20.773Z,-1.65
2022-11-24T05:47:49.408Z,-1.36
2022-11-24T05:50:19.119Z,-1.15
2022-11-24T05:52:46.640Z,-1.17
2022-11-24T05:55:30.527Z,-1.23
2022-11-24T05:57:59.761Z,-1.24
2022-11-24T06:00:28.793Z,-1.26
2022-11-24T06:02:58.254Z,-1.03
2022-11-24T06:05:26.225Z,-0.95
2022-11-24T06:07:54.528Z,-0.98
2022-11-24T06:10:26.696Z,-1.02
2022-11-24T06:12:53.922Z,-1.03
2022-11-24T06:15:21.740Z,-1.09
2022-11-24T06:17:55.885Z,-1.10
2022-11-24T06:20:28.352Z,-1.05
2022-11-24T06:22:59.148Z,-1.05
2022-11-24T06:25:26.982Z,-1.06
2022-11-24T06:27:54.046Z,-1.52
2022-11-24T06:30:21.727Z,-1.42
2022-11-24T06:32:49.890Z,-1.15
2022-11-24T06:35:17.721Z,-1.06
2022-11-24T06:37:46.141Z,-1.09
2022-11-24T06:40:13.967Z,-1.08
2022-11-24T06:42:41.284Z,-1.19
2022-11-24T06:45:09.819Z,-1.21
2022-11-24T06:47:37.449Z,-1.06
2022-11-24T06:50:05.387Z,-1.10
2022-11-24T06:52:32.621Z,-1.18
2022-11-24T06:55:00.019Z,-1.08
2022-11-24T06:57:29.649Z,-1.04
2022-11-24T06:59:58.466Z,-1.22
2022-11-24T07:02:25.848Z,-1.12
2022-11-24T07:04:53.367Z,-1.26
2022-11-24T07:07:20.655Z,-1.23
2022-11-24T07:09:48.143Z,-1.23
2022-11-24T07:12:15.465Z,-1.54
2022-11-24T07:14:43.045Z,-1.17
2022-11-24T07:17:10.205Z,-0.99
2022-11-24T07:19:37.762Z,-1.35
2022-11-24T07:22:05.193Z,-1.66
2022-11-24T07:24:33.031Z,-1.31
2022-11-24T07:27:00.481Z,-1.07
2022-11-24T07:29:28.066Z,-1.18
2022-11-24T07:31:55.263Z,-1.41
2022-11-24T07:34:22.775Z,-1.55
2022-11-24T07:36:50.274Z,-1.35
2022-11-24T07:39:17.841Z,-1.27
2022-11-24T07:41:45.044Z,-1.51
2022-11-24T07:44:12.677Z,-1.32
2022-11-24T07:46:40.122Z,-1.45
2022-11-24T07:49:07.685Z,-1.49
2022-11-24T07:51:36.949Z,-1.44
2022-11-24T07:54:04.727Z,-1.41
2022-11-24T07:56:31.882Z,-1.20
2022-11-24T07:58:59.505Z,-1.03
2022-11-24T08:01:27.000Z,-0.91
2022-11-24T08:03:54.783Z,-0.95
2022-11-24T08:06:26.075Z,-0.86
2022-11-24T08:08:57.349Z,-0.86
2022-11-24T08:11:25.389Z,-1.10
2022-11-24T08:13:52.941Z,-0.95
2022-11-24T08:16:20.516Z,-1.07
2022-11-24T08:18:53.499Z,-1.08
2022-11-24T08:21:23.334Z,-1.00
2022-11-24T08:23:57.520Z,-1.33
2022-11-24T08:26:25.742Z,-1.18
2022-11-24T08:28:56.089Z,-0.93
2022-11-24T08:31:25.058Z,-0.85
2022-11-24T08:33:54.759Z,-1.36
2022-11-24T08:36:21.920Z,-1.02
2022-11-24T08:38:54.992Z,-1.08
2022-11-24T08:41:22.395Z,-1.39
2022-11-24T08:43:50.084Z,-1.32
2022-11-24T08:46:18.651Z,-1.12
2022-11-24T08:48:50.394Z,-0.87
2022-11-24T08:51:20.877Z,-0.88
2022-11-24T08:53:48.623Z,-1.06
2022-11-24T08:56:16.098Z,-0.86
2022-11-24T08:58:43.891Z,-0.98
2022-11-24T09:01:14.169Z,-1.33
2022-11-24T09:03:49.704Z,-1.11
2022-11-24T09:06:25.011Z,-1.22
2022-11-24T09:08:54.736Z,-1.60
2022-11-24T09:11:22.670Z,-1.63
2022-11-24T09:13:50.267Z,-1.19
2022-11-24T09:16:20.364Z,-1.31
2022-11-24T09:18:48.406Z,-1.42
2022-11-24T09:21:20.753Z,-1.03
2022-11-24T09:23:50.704Z,-1.12
2022-11-24T09:26:23.952Z,-1.25
2022-11-24T09:28:55.514Z,-0.87
2022-11-24T09:31:25.369Z,-1.03
2022-11-24T09:33:53.691Z,-1.25
2022-11-24T09:36:21.958Z,-1.02
2022-11-24T09:38:49.631Z,-0.83
2022-11-24T09:41:44.582Z,-0.82
2022-11-24T09:44:38.646Z,-1.23
2022-11-24T09:47:36.272Z,-1.07
2022-11-24T09:50:20.507Z,-0.88
2022-11-24T09:53:05.986Z,-0.83
2022-11-24T09:56:10.423Z,-0.93
2022-11-24T09:58:49.180Z,-0.93
2022-11-24T10:01:19.861Z,-1.10
2022-11-24T10:03:51.717Z,-0.89
2022-11-24T10:06:25.769Z,-0.80
2022-11-24T10:09:20.002Z,-0.99
2022-11-24T10:12:08.942Z,-0.84
2022-11-24T10:14:48.230Z,-0.87
2022-11-24T10:17:34.785Z,-0.83
2022-11-24T10:20:17.155Z,-0.75
2022-11-24T10:22:53.934Z,-0.90
2022-11-24T10:25:50.348Z,-0.76
2022-11-24T10:28:17.902Z,-0.91
2022-11-24T10:30:45.378Z,-0.69
2022-11-24T10:33:15.950Z,-0.69
2022-11-24T10:35:52.500Z,-0.55
2022-11-24T10:38:20.116Z,-0.86
2022-11-24T10:41:02.259Z,-1.07
2022-11-24T10:43:30.074Z,-0.95
2022-11-24T10:46:11.137Z,-1.02
2022-11-24T10:48:49.469Z,-1.22
2022-11-24T10:51:36.355Z,-1.10
2022-11-24T10:54:19.300Z,-0.70
2022-11-24T10:56:48.484Z,-0.56
2022-11-24T10:59:37.209Z,-0.58
2022-11-24T11:02:40.487Z,-0.85
2022-11-24T11:05:27.201Z,-0.99
2022-11-24T11:08:14.647Z,-0.86
2022-11-24T11:10:43.901Z,-0.81
2022-11-24T11:13:21.294Z,-1.01
2022-11-24T11:15:49.121Z,-0.89
2022-11-24T11:18:18.552Z,-1.18
2022-11-24T11:20:50.066Z,-0.81
2022-11-24T11:23:25.560Z,-0.95
2022-11-24T11:26:39.437Z,-0.93
2022-11-24T11:34:56.109Z,-0.88
2022-11-24T11:37:28.998Z,-0.71
2022-11-24T11:39:57.155Z,-0.88
2022-11-24T11:45:28.200Z,-0.94
2022-11-24T11:48:01.443Z,-0.61
2022-11-24T11:51:14.893Z,-0.50
2022-11-24T11:53:47.252Z,-0.55
2022-11-24T11:56:40.515Z,-0.69
2022-11-24T11:59:35.429Z,-0.66
2022-11-24T12:02:20.935Z,-0.68
2022-11-24T12:05:06.426Z,-0.53
2022-11-24T12:07:36.665Z,-0.54
2022-11-24T12:10:10.082Z,-0.64
2022-11-24T12:12:46.081Z,-0.48
2022-11-24T12:15:31.998Z,-0.81
2022-11-24T12:21:39.560Z,-0.79
2022-11-24T12:24:09.919Z,-0.82
2022-11-24T12:26:43.192Z,-0.80
2022-11-24T12:29:28.884Z,-1.01
2022-11-24T12:31:59.304Z,-0.81
2022-11-24T12:34:33.937Z,-0.77
2022-11-24T12:37:20.450Z,-0.77
2022-11-24T12:40:02.679Z,-0.95
2022-11-24T12:42:33.615Z,-0.69
2022-11-24T12:45:01.057Z,-0.55
2022-11-24T12:48:03.837Z,-0.42
2022-11-24T12:50:38.295Z,-0.62
2022-11-24T12:53:10.535Z,-1.02
2022-11-24T12:55:39.753Z,-1.54
2022-11-24T12:58:14.899Z,-1.27
2022-11-24T13:01:04.100Z,-1.51
2022-11-24T13:04:03.853Z,-1.12
2022-11-24T13:06:41.026Z,-0.85
2022-11-24T13:09:12.370Z,-0.77
2022-11-24T13:11:51.226Z,-0.84
2022-11-24T13:14:23.517Z,-0.79
2022-11-24T13:19:43.035Z,-0.83
2022-11-24T13:22:16.114Z,-0.88
2022-11-24T13:24:45.199Z,-0.93
2022-11-24T13:27:15.456Z,-0.78
2022-11-24T13:29:44.913Z,-1.11
2022-11-24T13:32:12.075Z,-1.38
2022-11-24T13:34:39.852Z,-1.28
2022-11-24T13:37:26.626Z,-1.15
2022-11-24T13:40:11.859Z,-1.25
2022-11-24T13:43:01.490Z,-0.87
2022-11-24T13:45:49.778Z,-0.89
2022-11-24T13:48:20.310Z,-1.34
2022-11-24T13:50:51.108Z,-1.42
2022-11-24T13:53:43.292Z,-1.24
2022-11-24T13:56:14.072Z,-1.34
2022-11-24T13:58:56.626Z,-0.93
2022-11-24T14:01:36.859Z,-1.28
2022-11-24T14:04:30.495Z,-0.98
2022-11-24T14:07:07.881Z,-0.79
2022-11-24T14:09:44.890Z,-0.82
2022-11-24T14:12:15.203Z,-0.73
2022-11-24T14:14:44.453Z,-0.77
2022-11-24T14:17:19.628Z,-0.81
2022-11-24T14:19:49.270Z,-0.92
2022-11-24T14:22:35.021Z,-1.13
2022-11-24T14:25:03.731Z,-0.79
2022-11-24T14:27:34.562Z,-1.15
2022-11-24T14:30:15.532Z,-1.16
2022-11-24T14:33:04.055Z,-0.85
2022-11-24T14:35:34.093Z,-1.02
2022-11-24T14:38:03.784Z,-0.83
2022-11-24T14:40:45.542Z,-1.08
2022-11-24T14:43:22.386Z,-0.95
2022-11-24T14:46:12.402Z,-0.74
2022-11-24T14:48:48.327Z,-0.90
2022-11-24T14:51:23.173Z,-0.75
2022-11-24T14:54:01.082Z,-1.09
2022-11-24T14:56:35.565Z,-1.11
2022-11-24T14:59:04.658Z,-0.74
2022-11-24T15:01:34.560Z,-0.66
2022-11-24T15:05:00.748Z,-0.67
2022-11-24T15:07:13.174Z,-1.06
2022-11-24T15:09:49.390Z,-0.66
2022-11-24T15:12:56.561Z,-0.71
2022-11-24T15:15:31.470Z,-0.71
2022-11-24T15:18:00.980Z,-0.78
2022-11-24T15:20:35.114Z,-0.63
2022-11-24T15:23:25.641Z,-0.64
2022-11-24T15:25:55.335Z,-0.55
2022-11-24T15:28:26.757Z,-0.57
2022-11-24T15:30:55.830Z,-0.75
2022-11-24T15:33:23.966Z,-0.77
2022-11-24T15:35:51.930Z,-0.82
2022-11-24T15:38:19.474Z,-0.61
2022-11-24T15:40:50.025Z,-0.50
2022-11-24T15:43:36.613Z,-0.59
2022-11-24T15:46:05.498Z,-0.68
2022-11-24T15:48:33.417Z,-0.62
2022-11-24T15:51:04.415Z,-0.53
2022-11-24T15:54:13.239Z,-0.56
2022-11-24T15:56:42.355Z,-0.70
2022-11-24T15:59:20.349Z,-0.64
2022-11-24T16:01:50.816Z,-0.57
2022-11-24T16:04:18.489Z,-0.55
2022-11-24T16:06:46.279Z,-0.48
2022-11-24T16:09:16.447Z,-0.51
2022-11-24T16:11:44.566Z,-0.53
2022-11-24T16:14:11.975Z,-0.52
2022-11-24T16:16:40.865Z,-0.44
2022-11-24T16:19:10.120Z,-0.40
2022-11-24T16:21:37.911Z,-0.55
2022-11-24T16:24:05.742Z,-0.46
2022-11-24T16:26:33.496Z,-0.54
2022-11-24T16:29:00.826Z,-0.44
2022-11-24T16:31:28.594Z,-0.55
2022-11-24T16:33:55.991Z,-0.52
2022-11-24T16:36:23.963Z,-0.50
2022-11-24T16:38:51.512Z,-0.51
2022-11-24T16:41:21.949Z,-0.54
2022-11-24T16:43:49.501Z,-0.49
2022-11-24T16:46:19.208Z,-0.47
2022-11-24T16:48:49.423Z,-0.52
2022-11-24T16:51:19.392Z,-0.63
2022-11-24T16:53:46.845Z,-0.50
2022-11-24T16:56:16.488Z,-0.53
2022-11-24T16:58:44.052Z,-0.52
2022-11-24T17:01:13.645Z,-0.48
2022-11-24T17:03:41.607Z,-0.56
2022-11-24T17:06:13.191Z,-0.48
2022-11-24T17:08:41.765Z,-0.47
2022-11-24T17:11:13.463Z,-0.45
2022-11-24T17:13:41.917Z,-0.50
2022-11-24T17:16:12.986Z,-0.46
2022-11-24T17:18:40.828Z,-0.47
2022-11-24T17:21:13.219Z,-0.48
2022-11-24T17:23:41.175Z,-0.44
2022-11-24T17:26:11.983Z,-0.35
2022-11-24T17:28:39.652Z,-0.39
2022-11-24T17:31:14.556Z,-0.46
2022-11-24T17:33:42.117Z,-0.42
2022-11-24T17:36:09.772Z,-0.42
2022-11-24T17:38:37.483Z,-0.49
2022-11-24T17:41:05.648Z,-0.38
2022-11-24T17:43:33.565Z,-0.41
2022-11-24T17:46:03.686Z,-0.53
2022-11-24T17:48:32.123Z,-0.43
2022-11-24T17:51:03.881Z,-0.44
2022-11-24T17:53:32.011Z,-0.48
2022-11-24T17:56:01.345Z,-0.46
2022-11-24T17:58:29.951Z,-0.54
2022-11-24T18:00:58.518Z,-0.55
2022-11-24T18:03:28.859Z,-0.46
2022-11-24T18:06:06.694Z,-0.51
2022-11-24T18:08:35.364Z,-0.40
2022-11-24T18:11:09.123Z,-0.44
2022-11-24T18:16:25.899Z,-0.46
2022-11-24T18:19:08.696Z,-0.46
2022-11-24T18:21:38.925Z,-0.56
2022-11-24T18:24:08.044Z,-0.56
2022-11-24T18:26:36.343Z,-0.44
2022-11-24T18:29:04.694Z,-0.48
2022-11-24T18:31:34.382Z,-0.43
2022-11-24T18:34:03.371Z,-0.44
2022-11-24T18:36:31.578Z,-0.47
2022-11-24T18:39:03.510Z,-0.58
2022-11-24T18:41:32.063Z,-0.48
2022-11-24T18:44:02.537Z,-0.68
2022-11-24T18:46:30.423Z,-0.52
2022-11-24T18:48:57.906Z,-0.49
2022-11-24T18:51:25.783Z,-0.57
2022-11-24T18:53:54.851Z,-0.50
2022-11-24T18:56:23.182Z,-0.61
2022-11-24T18:58:55.384Z,-0.64
2022-11-24T19:01:26.306Z,-0.64
2022-11-24T19:03:59.723Z,-0.74
2022-11-24T19:06:32.860Z,-0.74
2022-11-24T19:09:22.853Z,-0.63
2022-11-24T19:11:51.663Z,-0.52
2022-11-24T19:14:19.756Z,-0.63
2022-11-24T19:16:48.345Z,-0.56
2022-11-24T19:19:17.591Z,-0.52
2022-11-24T19:21:46.119Z,-0.55
2022-11-24T19:24:14.627Z,-0.62
2022-11-24T19:26:42.956Z,-0.55
2022-11-24T19:29:11.081Z,-0.58
2022-11-24T19:31:40.479Z,-0.60
2022-11-24T19:34:08.426Z,-0.57
2022-11-24T19:36:36.469Z,-0.63
2022-11-24T19:39:05.295Z,-0.59
2022-11-24T19:41:34.397Z,-0.60
2022-11-24T19:44:02.220Z,-0.61
2022-11-24T19:46:30.448Z,-0.63
2022-11-24T19:49:02.480Z,-0.63
2022-11-24T19:51:33.734Z,-0.60
2022-11-24T19:54:02.031Z,-0.61
2022-11-24T19:56:32.563Z,-0.60
2022-11-24T19:59:00.059Z,-0.59
2022-11-24T20:01:36.173Z,-0.64
2022-11-24T20:04:06.436Z,-0.67
2022-11-24T20:06:40.084Z,-0.79
2022-11-24T20:09:09.972Z,-0.96
2022-11-24T20:11:39.144Z,-0.96
2022-11-24T20:14:08.684Z,-0.85
2022-11-24T20:16:37.191Z,-0.99
2022-11-24T20:19:07.630Z,-0.92
2022-11-24T20:21:37.256Z,-1.30
2022-11-24T20:24:08.144Z,-1.07
2022-11-24T20:26:38.929Z,-1.32
2022-11-24T20:29:09.725Z,-1.43
2022-11-24T20:31:40.524Z,-1.33
2022-11-24T20:34:08.859Z,-1.39
2022-11-24T20:36:38.885Z,-1.23
2022-11-24T20:39:11.124Z,-1.33
2022-11-24T20:41:40.272Z,-1.33
2022-11-24T20:44:15.729Z,-1.45
2022-11-24T20:46:48.571Z,-1.41
2022-11-24T20:49:18.918Z,-1.27
2022-11-24T20:51:47.914Z,-1.15
2022-11-24T20:54:17.679Z,-1.02
2022-11-24T20:56:46.558Z,-0.93
2022-11-24T20:59:17.664Z,-0.89
2022-11-24T21:01:46.729Z,-1.02
2022-11-24T21:04:17.836Z,-0.77
2022-11-24T21:06:46.109Z,-0.64
2022-11-24T21:09:13.751Z,-0.70
2022-11-24T21:11:42.262Z,-0.65
2022-11-24T21:14:10.539Z,-0.60
2022-11-24T21:16:41.215Z,-0.85
2022-11-24T21:19:13.781Z,-0.58
2022-11-24T21:21:42.890Z,-0.56
2022-11-24T21:24:18.545Z,-0.57
2022-11-24T21:26:48.188Z,-0.40
2022-11-24T21:29:22.019Z,-0.59
2022-11-24T21:31:49.790Z,-0.73
2022-11-24T21:34:19.255Z,-0.53
2022-11-24T21:36:47.363Z,-0.55
2022-11-24T21:39:15.444Z,-0.53
2022-11-24T21:41:44.069Z,-0.53
2022-11-24T21:44:13.623Z,-0.62
2022-11-24T21:46:47.871Z,-0.71
2022-11-24T21:49:16.911Z,-0.77
2022-11-24T21:51:44.643Z,-0.87
2022-11-24T21:54:11.999Z,-0.83
2022-11-24T21:56:41.844Z,-0.72
2022-11-24T21:59:09.060Z,-1.02
2022-11-24T22:01:36.836Z,-1.05
2022-11-24T22:04:04.504Z,-0.92
2022-11-24T22:06:33.366Z,-0.79
2022-11-24T22:09:00.632Z,-0.73
2022-11-24T22:11:28.337Z,-0.76
2022-11-24T22:13:55.663Z,-0.74
2022-11-24T22:16:24.927Z,-0.69
2022-11-24T22:18:52.345Z,-0.79
2022-11-24T22:21:30.617Z,-0.79
2022-11-24T22:23:58.131Z,-0.66
2022-11-24T22:26:26.304Z,-0.74
2022-11-24T22:28:54.670Z,-0.71
2022-11-24T22:31:23.554Z,-0.78
2022-11-24T22:33:52.226Z,-0.78
2022-11-24T22:36:23.331Z,-0.58
2022-11-24T22:38:54.920Z,-0.44
2022-11-24T22:41:22.817Z,-0.42
2022-11-24T22:43:50.398Z,-0.43
2022-11-24T22:46:22.839Z,-0.57
2022-11-24T22:48:54.711Z,-0.45
2022-11-24T22:51:25.346Z,-0.72
2022-11-24T22:53:55.866Z,-0.53
2022-11-24T22:56:24.703Z,-0.45
2022-11-24T22:58:52.051Z,-0.30
2022-11-24T23:01:24.286Z,-0.20
2022-11-24T23:03:54.503Z,-0.25
2022-11-24T23:06:33.385Z,-0.30
2022-11-24T23:09:01.583Z,-0.40
2022-11-24T23:11:40.445Z,-0.31
2022-11-24T23:14:12.181Z,-0.26
2022-11-24T23:16:39.940Z,-0.34
2022-11-24T23:19:08.733Z,-0.30
2022-11-24T23:21:40.355Z,-0.17
2022-11-24T23:24:08.016Z,-0.13
2022-11-24T23:26:40.551Z,-0.17
2022-11-24T23:29:08.231Z,-0.08
2022-11-24T23:31:36.455Z,-0.10
2022-11-24T23:34:04.637Z,-0.04
2022-11-24T23:36:32.948Z,-0.03
2022-11-24T23:39:05.632Z,0.02
2022-11-24T23:41:33.512Z,-0.05
2022-11-24T23:44:01.172Z,0.06
2022-11-24T23:46:29.444Z,0.01
2022-11-24T23:48:57.184Z,0.01
2022-11-24T23:51:27.437Z,-0.03
2022-11-24T23:53:55.383Z,-0.04
2022-11-24T23:56:25.844Z,-0.03
2022-11-24T23:58:53.159Z,0.00
